TAM2505 SBTE-SBBR
Flight info
| Callsign | TAM2505 |
|---|---|
| Flight time | 1h 54m |
| Altitude | 38000 |
| Route | GUEST DCT KADAG DCT TOLAT |
| Aircraft | A20N/M-SDE2E3FGHIRWXY/LB1 |
Departure
| Time | 2026-04-15 20:11 |
|---|---|
| Airport | Senador Petrônio Portela Airport (SBTE) |
Arrival
| Time | 2026-04-15 22:06 |
|---|---|
| Airport | Presidente Juscelino Kubitschek International Airport (SBBR) |
| Time | Latitude | Longitude | Altitude | Speed | Heading |
|---|---|---|---|---|---|
| 2026-04-15 19:44 | -5.06482 | -42.82154 | 212 ft | 0 kts | 84° |
| 2026-04-15 20:02 | -5.06483 | -42.82168 | 216 ft | 2 kts | 82° |
| 2026-04-15 20:02 | -5.06486 | -42.82184 | 211 ft | 2 kts | 76° |
| 2026-04-15 20:03 | -5.06495 | -42.82197 | 200 ft | 2 kts | 9° |
| 2026-04-15 20:03 | -5.06506 | -42.82198 | 222 ft | 1 kts | 355° |
| 2026-04-15 20:03 | -5.06508 | -42.82198 | 221 ft | 0 kts | 354° |
| 2026-04-15 20:06 | -5.06507 | -42.82198 | 213 ft | 0 kts | 354° |
| 2026-04-15 20:06 | -5.06492 | -42.82199 | 217 ft | 4 kts | 355° |
| 2026-04-15 20:06 | -5.06451 | -42.82203 | 218 ft | 7 kts | 354° |
| 2026-04-15 20:06 | -5.06389 | -42.82212 | 219 ft | 10 kts | 336° |
| 2026-04-15 20:07 | -5.06368 | -42.82274 | 214 ft | 11 kts | 265° |
| 2026-04-15 20:07 | -5.06341 | -42.82336 | 214 ft | 11 kts | 333° |
| 2026-04-15 20:07 | -5.06256 | -42.82348 | 222 ft | 14 kts | 355° |
| 2026-04-15 20:07 | -5.06149 | -42.82358 | 218 ft | 17 kts | 354° |
| 2026-04-15 20:08 | -5.06022 | -42.82369 | 213 ft | 20 kts | 353° |
| 2026-04-15 20:08 | -5.05880 | -42.82386 | 213 ft | 21 kts | 353° |
| 2026-04-15 20:08 | -5.05726 | -42.82404 | 213 ft | 23 kts | 353° |
| 2026-04-15 20:08 | -5.05554 | -42.82421 | 215 ft | 26 kts | 354° |
| 2026-04-15 20:09 | -5.05373 | -42.82439 | 213 ft | 27 kts | 354° |
| 2026-04-15 20:09 | -5.05186 | -42.82458 | 212 ft | 24 kts | 354° |
| 2026-04-15 20:09 | -5.05077 | -42.82448 | 215 ft | 9 kts | 26° |
| 2026-04-15 20:09 | -5.05044 | -42.82452 | 214 ft | 3 kts | 291° |
| 2026-04-15 20:10 | -5.05055 | -42.82466 | 217 ft | 4 kts | 221° |
| 2026-04-15 20:10 | -5.05095 | -42.82470 | 216 ft | 6 kts | 174° |
| 2026-04-15 20:10 | -5.05097 | -42.82469 | 216 ft | 0 kts | 174° |
| 2026-04-15 20:10 | -5.05101 | -42.82469 | 212 ft | 4 kts | 173° |
| 2026-04-15 20:11 | -5.05332 | -42.82443 | 213 ft | 72 kts | 173° |
| 2026-04-15 20:11 | -5.06063 | -42.82366 | 218 ft | 138 kts | 174° |
| 2026-04-15 20:11 | -5.07168 | -42.82244 | 549 ft | 163 kts | 174° |
| 2026-04-15 20:11 | -5.08314 | -42.82141 | 1231 ft | 169 kts | 174° |
| 2026-04-15 20:12 | -5.09483 | -42.82052 | 1928 ft | 171 kts | 174° |
| 2026-04-15 20:12 | -5.10703 | -42.81956 | 2503 ft | 185 kts | 173° |
| 2026-04-15 20:12 | -5.12044 | -42.81815 | 2962 ft | 203 kts | 172° |
| 2026-04-15 20:12 | -5.13544 | -42.81658 | 3369 ft | 225 kts | 172° |
| 2026-04-15 20:13 | -5.15168 | -42.81667 | 3770 ft | 251 kts | 192° |
| 2026-04-15 20:13 | -5.16829 | -42.82469 | 4332 ft | 271 kts | 213° |
| 2026-04-15 20:13 | -5.18340 | -42.83615 | 5094 ft | 280 kts | 215° |
| 2026-04-15 20:13 | -5.19914 | -42.84767 | 6014 ft | 282 kts | 212° |
| 2026-04-15 20:14 | -5.21568 | -42.85842 | 6811 ft | 286 kts | 209° |
| 2026-04-15 20:14 | -5.23291 | -42.86855 | 7624 ft | 288 kts | 207° |
| 2026-04-15 20:14 | -5.25062 | -42.87839 | 8371 ft | 294 kts | 206° |
| 2026-04-15 20:14 | -5.26866 | -42.88817 | 9167 ft | 297 kts | 206° |
| 2026-04-15 20:15 | -5.28694 | -42.89802 | 9933 ft | 300 kts | 206° |
| 2026-04-15 20:15 | -5.30581 | -42.90819 | 10343 ft | 318 kts | 206° |
| 2026-04-15 20:15 | -5.31931 | -42.91547 | 10482 ft | 333 kts | 206° |
| 2026-04-15 20:15 | -5.34030 | -42.92682 | 10766 ft | 351 kts | 207° |
| 2026-04-15 20:16 | -5.36193 | -42.93857 | 11440 ft | 354 kts | 207° |
| 2026-04-15 20:16 | -5.38373 | -42.95043 | 12131 ft | 358 kts | 207° |
| 2026-04-15 20:16 | -5.40577 | -42.96241 | 12798 ft | 362 kts | 207° |
| 2026-04-15 20:16 | -5.42802 | -42.97451 | 13482 ft | 366 kts | 207° |
| 2026-04-15 20:17 | -5.45052 | -42.98674 | 14098 ft | 370 kts | 207° |
| 2026-04-15 20:17 | -5.47325 | -42.99909 | 14710 ft | 372 kts | 207° |
| 2026-04-15 20:17 | -5.49616 | -43.01154 | 15262 ft | 377 kts | 207° |
| 2026-04-15 20:17 | -5.51929 | -43.02412 | 15845 ft | 380 kts | 207° |
| 2026-04-15 20:18 | -5.54266 | -43.03682 | 16411 ft | 383 kts | 207° |
| 2026-04-15 20:18 | -5.56620 | -43.04962 | 16969 ft | 387 kts | 207° |
| 2026-04-15 20:18 | -5.58997 | -43.06254 | 17509 ft | 390 kts | 207° |
| 2026-04-15 20:18 | -5.61395 | -43.07558 | 18049 ft | 393 kts | 207° |
| 2026-04-15 20:19 | -5.63776 | -43.08853 | 18523 ft | 396 kts | 207° |
| 2026-04-15 20:19 | -5.66234 | -43.10190 | 19013 ft | 398 kts | 207° |
| 2026-04-15 20:19 | -5.68643 | -43.11513 | 19481 ft | 401 kts | 208° |
| 2026-04-15 20:19 | -5.71052 | -43.12934 | 19973 ft | 402 kts | 210° |
| 2026-04-15 20:20 | -5.73453 | -43.14395 | 20451 ft | 404 kts | 210° |
| 2026-04-15 20:20 | -5.75863 | -43.15862 | 20928 ft | 406 kts | 210° |
| 2026-04-15 20:20 | -5.78287 | -43.17329 | 21388 ft | 409 kts | 210° |
| 2026-04-15 20:20 | -5.80734 | -43.18800 | 21842 ft | 411 kts | 210° |
| 2026-04-15 20:21 | -5.83196 | -43.20278 | 22300 ft | 413 kts | 210° |
| 2026-04-15 20:21 | -5.85671 | -43.21754 | 22746 ft | 415 kts | 210° |
| 2026-04-15 20:21 | -5.88158 | -43.23240 | 23192 ft | 417 kts | 210° |
| 2026-04-15 20:21 | -5.90663 | -43.24739 | 23578 ft | 420 kts | 210° |
| 2026-04-15 20:22 | -5.93173 | -43.26241 | 23952 ft | 422 kts | 210° |
| 2026-04-15 20:22 | -5.95702 | -43.27754 | 24312 ft | 423 kts | 210° |
| 2026-04-15 20:22 | -5.98239 | -43.29272 | 24681 ft | 425 kts | 210° |
| 2026-04-15 20:22 | -6.00783 | -43.30795 | 25030 ft | 427 kts | 210° |
| 2026-04-15 20:23 | -6.03861 | -43.32636 | 25446 ft | 429 kts | 210° |
| 2026-04-15 20:23 | -6.06428 | -43.34173 | 25783 ft | 431 kts | 210° |
| 2026-04-15 20:23 | -6.09012 | -43.35720 | 26117 ft | 433 kts | 210° |
| 2026-04-15 20:23 | -6.11602 | -43.37270 | 26449 ft | 435 kts | 210° |
| 2026-04-15 20:24 | -6.14203 | -43.38827 | 26771 ft | 436 kts | 210° |
| 2026-04-15 20:24 | -6.19441 | -43.41965 | 27395 ft | 440 kts | 210° |
| 2026-04-15 20:24 | -6.22075 | -43.43543 | 27705 ft | 442 kts | 210° |
| 2026-04-15 20:25 | -6.24722 | -43.45129 | 28014 ft | 443 kts | 210° |
| 2026-04-15 20:25 | -6.27374 | -43.46718 | 28324 ft | 445 kts | 211° |
| 2026-04-15 20:25 | -6.30035 | -43.48312 | 28654 ft | 446 kts | 211° |
| 2026-04-15 20:25 | -6.32698 | -43.49909 | 28922 ft | 448 kts | 211° |
| 2026-04-15 20:26 | -6.35385 | -43.51520 | 29208 ft | 449 kts | 211° |
| 2026-04-15 20:26 | -6.38073 | -43.53131 | 29496 ft | 451 kts | 210° |
| 2026-04-15 20:26 | -6.40766 | -43.54746 | 29783 ft | 452 kts | 210° |
| 2026-04-15 20:26 | -6.43470 | -43.56368 | 30056 ft | 453 kts | 210° |
| 2026-04-15 20:27 | -6.46185 | -43.57996 | 30274 ft | 455 kts | 210° |
| 2026-04-15 20:27 | -6.48912 | -43.59631 | 30504 ft | 457 kts | 210° |
| 2026-04-15 20:27 | -6.51650 | -43.61274 | 30734 ft | 459 kts | 210° |
| 2026-04-15 20:27 | -6.54396 | -43.62922 | 30979 ft | 461 kts | 210° |
| 2026-04-15 20:28 | -6.57147 | -43.64573 | 31270 ft | 461 kts | 210° |
| 2026-04-15 20:28 | -6.59899 | -43.66224 | 31591 ft | 460 kts | 210° |
| 2026-04-15 20:28 | -6.62647 | -43.67874 | 31922 ft | 459 kts | 210° |
| 2026-04-15 20:28 | -6.65387 | -43.69519 | 32238 ft | 459 kts | 210° |
| 2026-04-15 20:29 | -6.68127 | -43.71163 | 32547 ft | 458 kts | 210° |
| 2026-04-15 20:29 | -6.70861 | -43.72805 | 32858 ft | 457 kts | 210° |
| 2026-04-15 20:29 | -6.73588 | -43.74443 | 33160 ft | 457 kts | 210° |
| 2026-04-15 20:29 | -6.76318 | -43.76083 | 33456 ft | 456 kts | 210° |
| 2026-04-15 20:30 | -6.79040 | -43.77719 | 33720 ft | 456 kts | 210° |
| 2026-04-15 20:30 | -6.81760 | -43.79354 | 33974 ft | 455 kts | 210° |
| 2026-04-15 20:30 | -6.84479 | -43.80987 | 34200 ft | 455 kts | 210° |
| 2026-04-15 20:30 | -6.86282 | -43.82071 | 34332 ft | 455 kts | 210° |
| 2026-04-15 20:31 | -6.89919 | -43.84257 | 34605 ft | 455 kts | 210° |
| 2026-04-15 20:31 | -6.91720 | -43.85339 | 34761 ft | 455 kts | 210° |
| 2026-04-15 20:31 | -6.95356 | -43.87525 | 35024 ft | 455 kts | 210° |
| 2026-04-15 20:31 | -6.97157 | -43.88607 | 35165 ft | 455 kts | 210° |
| 2026-04-15 20:32 | -6.99871 | -43.90239 | 35391 ft | 454 kts | 210° |
| 2026-04-15 20:32 | -7.02580 | -43.91868 | 35624 ft | 453 kts | 211° |
| 2026-04-15 20:32 | -7.05284 | -43.93494 | 35840 ft | 453 kts | 211° |
| 2026-04-15 20:32 | -7.07991 | -43.95122 | 36040 ft | 453 kts | 211° |
| 2026-04-15 20:33 | -7.11569 | -43.97274 | 36294 ft | 453 kts | 211° |
| 2026-04-15 20:33 | -7.14272 | -43.98899 | 36460 ft | 453 kts | 211° |
| 2026-04-15 20:33 | -7.16102 | -43.99999 | 36566 ft | 453 kts | 211° |
| 2026-04-15 20:33 | -7.18811 | -44.01629 | 36732 ft | 454 kts | 212° |
| 2026-04-15 20:34 | -7.21519 | -44.03259 | 36901 ft | 454 kts | 212° |
| 2026-04-15 20:34 | -7.24233 | -44.04892 | 37049 ft | 454 kts | 212° |
| 2026-04-15 20:34 | -7.26945 | -44.06524 | 37196 ft | 455 kts | 212° |
| 2026-04-15 20:34 | -7.29664 | -44.08162 | 37336 ft | 455 kts | 212° |
| 2026-04-15 20:35 | -7.32383 | -44.09800 | 37508 ft | 455 kts | 212° |
| 2026-04-15 20:35 | -7.35097 | -44.11435 | 37649 ft | 455 kts | 212° |
| 2026-04-15 20:35 | -7.37816 | -44.13072 | 37808 ft | 455 kts | 212° |
| 2026-04-15 20:36 | -7.43241 | -44.16343 | 37852 ft | 454 kts | 212° |
| 2026-04-15 20:36 | -7.48649 | -44.19603 | 37855 ft | 452 kts | 212° |
| 2026-04-15 20:37 | -7.54555 | -44.23163 | 37852 ft | 451 kts | 212° |
| 2026-04-15 20:37 | -7.59931 | -44.26406 | 37844 ft | 450 kts | 212° |
| 2026-04-15 20:38 | -7.65291 | -44.29641 | 37856 ft | 448 kts | 212° |
| 2026-04-15 20:38 | -7.70632 | -44.32864 | 37850 ft | 447 kts | 212° |
| 2026-04-15 20:39 | -7.75920 | -44.36057 | 37846 ft | 445 kts | 212° |
| 2026-04-15 20:39 | -7.81260 | -44.39282 | 37844 ft | 444 kts | 212° |
| 2026-04-15 20:40 | -7.86553 | -44.42480 | 37832 ft | 443 kts | 212° |
| 2026-04-15 20:40 | -7.91802 | -44.45652 | 37827 ft | 442 kts | 212° |
| 2026-04-15 20:41 | -7.97077 | -44.48841 | 37826 ft | 442 kts | 212° |
| 2026-04-15 20:41 | -8.02381 | -44.52047 | 37842 ft | 446 kts | 212° |
| 2026-04-15 20:42 | -8.07704 | -44.55267 | 37842 ft | 445 kts | 212° |
| 2026-04-15 20:42 | -8.13018 | -44.58482 | 37852 ft | 446 kts | 212° |
| 2026-04-15 20:43 | -8.18335 | -44.61700 | 37840 ft | 446 kts | 212° |
| 2026-04-15 20:43 | -8.23660 | -44.64924 | 37838 ft | 446 kts | 212° |
| 2026-04-15 20:44 | -8.28982 | -44.68148 | 37848 ft | 446 kts | 212° |
| 2026-04-15 20:44 | -8.34309 | -44.71375 | 37842 ft | 446 kts | 212° |
| 2026-04-15 20:45 | -8.39636 | -44.74604 | 37841 ft | 447 kts | 212° |
| 2026-04-15 20:45 | -8.44967 | -44.77836 | 37838 ft | 447 kts | 212° |
| 2026-04-15 20:46 | -8.50307 | -44.81073 | 37843 ft | 448 kts | 212° |
| 2026-04-15 20:46 | -8.55648 | -44.84313 | 37845 ft | 448 kts | 212° |
| 2026-04-15 20:47 | -8.60991 | -44.87555 | 37854 ft | 448 kts | 212° |
| 2026-04-15 20:47 | -8.66343 | -44.90803 | 37857 ft | 449 kts | 212° |
| 2026-04-15 20:48 | -8.71690 | -44.94049 | 37845 ft | 449 kts | 212° |
| 2026-04-15 20:48 | -8.77045 | -44.97302 | 37851 ft | 449 kts | 212° |
| 2026-04-15 20:49 | -8.82402 | -45.00557 | 37856 ft | 449 kts | 212° |
| 2026-04-15 20:49 | -8.87762 | -45.03816 | 37855 ft | 450 kts | 212° |
| 2026-04-15 20:50 | -8.93126 | -45.07078 | 37844 ft | 450 kts | 211° |
| 2026-04-15 20:50 | -8.98490 | -45.10340 | 37851 ft | 450 kts | 211° |
| 2026-04-15 20:51 | -9.03829 | -45.13588 | 37855 ft | 451 kts | 211° |
| 2026-04-15 20:51 | -9.09203 | -45.16859 | 37854 ft | 451 kts | 211° |
| 2026-04-15 20:52 | -9.14581 | -45.20133 | 37863 ft | 451 kts | 211° |
| 2026-04-15 20:52 | -9.19079 | -45.22872 | 37854 ft | 450 kts | 211° |
| 2026-04-15 20:53 | -9.24439 | -45.26138 | 37861 ft | 450 kts | 211° |
| 2026-04-15 20:53 | -9.29805 | -45.29408 | 37864 ft | 450 kts | 211° |
| 2026-04-15 20:54 | -9.35170 | -45.32679 | 37853 ft | 450 kts | 211° |
| 2026-04-15 20:54 | -9.40536 | -45.35951 | 37852 ft | 450 kts | 211° |
| 2026-04-15 20:55 | -9.45864 | -45.39202 | 37861 ft | 450 kts | 211° |
| 2026-04-15 20:55 | -9.51253 | -45.42491 | 37850 ft | 449 kts | 211° |
| 2026-04-15 20:56 | -9.56566 | -45.45735 | 37848 ft | 449 kts | 211° |
| 2026-04-15 20:56 | -9.61912 | -45.49000 | 37847 ft | 449 kts | 211° |
| 2026-04-15 20:57 | -9.67263 | -45.52270 | 37853 ft | 449 kts | 211° |
| 2026-04-15 20:57 | -9.72607 | -45.55536 | 37854 ft | 448 kts | 211° |
| 2026-04-15 20:58 | -9.77948 | -45.58802 | 37845 ft | 448 kts | 211° |
| 2026-04-15 20:58 | -9.83295 | -45.62072 | 37841 ft | 448 kts | 211° |
| 2026-04-15 20:59 | -9.88629 | -45.65337 | 37848 ft | 447 kts | 211° |
| 2026-04-15 20:59 | -9.93955 | -45.68597 | 37852 ft | 447 kts | 211° |
| 2026-04-15 21:00 | -9.99292 | -45.71866 | 37854 ft | 448 kts | 211° |
| 2026-04-15 21:00 | -10.04616 | -45.75127 | 37855 ft | 447 kts | 211° |
| 2026-04-15 21:01 | -10.09941 | -45.78391 | 37860 ft | 447 kts | 211° |
| 2026-04-15 21:01 | -10.15251 | -45.81646 | 37868 ft | 446 kts | 211° |
| 2026-04-15 21:02 | -10.20555 | -45.84899 | 37866 ft | 445 kts | 211° |
| 2026-04-15 21:02 | -10.25853 | -45.88151 | 37865 ft | 445 kts | 211° |
| 2026-04-15 21:03 | -10.31155 | -45.91405 | 37862 ft | 445 kts | 211° |
| 2026-04-15 21:03 | -10.36446 | -45.94654 | 37858 ft | 444 kts | 211° |
| 2026-04-15 21:04 | -10.41740 | -45.97907 | 37868 ft | 445 kts | 211° |
| 2026-04-15 21:04 | -10.47033 | -46.01160 | 37867 ft | 444 kts | 211° |
| 2026-04-15 21:05 | -10.52326 | -46.04414 | 37868 ft | 445 kts | 211° |
| 2026-04-15 21:05 | -10.57617 | -46.07669 | 37872 ft | 444 kts | 211° |
| 2026-04-15 21:06 | -10.62910 | -46.10925 | 37868 ft | 445 kts | 211° |
| 2026-04-15 21:06 | -10.68200 | -46.14182 | 37870 ft | 444 kts | 211° |
| 2026-04-15 21:07 | -10.73489 | -46.17439 | 37871 ft | 444 kts | 211° |
| 2026-04-15 21:07 | -10.78777 | -46.20697 | 37868 ft | 444 kts | 211° |
| 2026-04-15 21:08 | -10.84025 | -46.23932 | 37869 ft | 444 kts | 211° |
| 2026-04-15 21:08 | -10.89308 | -46.27189 | 37865 ft | 444 kts | 211° |
| 2026-04-15 21:09 | -10.94578 | -46.30440 | 37878 ft | 443 kts | 211° |
| 2026-04-15 21:09 | -10.99850 | -46.33693 | 37880 ft | 443 kts | 211° |
| 2026-04-15 21:10 | -11.05108 | -46.36939 | 37880 ft | 442 kts | 211° |
| 2026-04-15 21:10 | -11.10364 | -46.40185 | 37885 ft | 441 kts | 211° |
| 2026-04-15 21:11 | -11.15610 | -46.43427 | 37883 ft | 441 kts | 211° |
| 2026-04-15 21:11 | -11.20847 | -46.46663 | 37889 ft | 440 kts | 211° |
| 2026-04-15 21:12 | -11.26071 | -46.49894 | 37894 ft | 439 kts | 211° |
| 2026-04-15 21:12 | -11.31288 | -46.53121 | 37894 ft | 438 kts | 211° |
| 2026-04-15 21:13 | -11.36497 | -46.56345 | 37888 ft | 438 kts | 211° |
| 2026-04-15 21:13 | -11.41700 | -46.59567 | 37890 ft | 437 kts | 211° |
| 2026-04-15 21:14 | -11.46888 | -46.62780 | 37886 ft | 436 kts | 211° |
| 2026-04-15 21:14 | -11.52071 | -46.65992 | 37886 ft | 436 kts | 211° |
| 2026-04-15 21:15 | -11.57247 | -46.69202 | 37887 ft | 435 kts | 211° |
| 2026-04-15 21:15 | -11.62410 | -46.72404 | 37877 ft | 434 kts | 211° |
| 2026-04-15 21:16 | -11.67569 | -46.75605 | 37872 ft | 433 kts | 211° |
| 2026-04-15 21:16 | -11.72714 | -46.78799 | 37871 ft | 433 kts | 211° |
| 2026-04-15 21:17 | -11.77855 | -46.81992 | 37863 ft | 432 kts | 211° |
| 2026-04-15 21:17 | -11.82992 | -46.85183 | 37860 ft | 432 kts | 211° |
| 2026-04-15 21:18 | -11.88127 | -46.88374 | 37863 ft | 432 kts | 211° |
| 2026-04-15 21:18 | -11.93248 | -46.91587 | 37844 ft | 432 kts | 214° |
| 2026-04-15 21:19 | -11.98187 | -46.95086 | 37858 ft | 432 kts | 215° |
| 2026-04-15 21:19 | -12.03100 | -46.98551 | 37860 ft | 432 kts | 215° |
| 2026-04-15 21:20 | -12.08049 | -47.02046 | 37847 ft | 432 kts | 215° |
| 2026-04-15 21:20 | -12.12997 | -47.05545 | 37859 ft | 433 kts | 215° |
| 2026-04-15 21:21 | -12.17954 | -47.09053 | 37860 ft | 433 kts | 215° |
| 2026-04-15 21:21 | -12.22911 | -47.12563 | 37857 ft | 434 kts | 215° |
| 2026-04-15 21:22 | -12.27871 | -47.16077 | 37855 ft | 434 kts | 215° |
| 2026-04-15 21:22 | -12.32837 | -47.19597 | 37866 ft | 434 kts | 215° |
| 2026-04-15 21:23 | -12.37809 | -47.23122 | 37878 ft | 435 kts | 215° |
| 2026-04-15 21:23 | -12.42781 | -47.26650 | 37880 ft | 435 kts | 215° |
| 2026-04-15 21:24 | -12.47755 | -47.30180 | 37875 ft | 435 kts | 215° |
| 2026-04-15 21:24 | -12.52723 | -47.33708 | 37865 ft | 433 kts | 215° |
| 2026-04-15 21:25 | -12.57667 | -47.37220 | 37865 ft | 433 kts | 215° |
| 2026-04-15 21:25 | -12.62607 | -47.40731 | 37879 ft | 432 kts | 215° |
| 2026-04-15 21:26 | -12.67547 | -47.44245 | 37866 ft | 432 kts | 215° |
| 2026-04-15 21:26 | -12.72490 | -47.47761 | 37879 ft | 432 kts | 215° |
| 2026-04-15 21:27 | -12.77433 | -47.51280 | 37874 ft | 433 kts | 215° |
| 2026-04-15 21:27 | -12.82373 | -47.54798 | 37872 ft | 433 kts | 215° |
| 2026-04-15 21:28 | -12.87283 | -47.58296 | 37873 ft | 433 kts | 215° |
| 2026-04-15 21:28 | -12.92223 | -47.61818 | 37886 ft | 433 kts | 215° |
| 2026-04-15 21:29 | -12.97165 | -47.65342 | 37876 ft | 433 kts | 215° |
| 2026-04-15 21:29 | -13.02109 | -47.68870 | 37888 ft | 433 kts | 215° |
| 2026-04-15 21:30 | -13.07049 | -47.72397 | 37883 ft | 433 kts | 215° |
| 2026-04-15 21:30 | -13.11986 | -47.75923 | 37886 ft | 432 kts | 215° |
| 2026-04-15 21:31 | -13.19393 | -47.81217 | 37898 ft | 432 kts | 215° |
| 2026-04-15 21:32 | -13.26791 | -47.86509 | 37904 ft | 432 kts | 215° |
| 2026-04-15 21:32 | -13.31721 | -47.90038 | 37906 ft | 432 kts | 215° |
| 2026-04-15 21:33 | -13.35821 | -47.92974 | 37896 ft | 432 kts | 215° |
| 2026-04-15 21:33 | -13.41582 | -47.97102 | 37909 ft | 432 kts | 215° |
| 2026-04-15 21:34 | -13.46514 | -48.00637 | 37908 ft | 432 kts | 215° |
| 2026-04-15 21:34 | -13.51444 | -48.04172 | 37913 ft | 432 kts | 215° |
| 2026-04-15 21:35 | -13.56368 | -48.07706 | 37905 ft | 432 kts | 215° |
| 2026-04-15 21:35 | -13.61290 | -48.11239 | 37918 ft | 431 kts | 215° |
| 2026-04-15 21:36 | -13.66204 | -48.14769 | 37915 ft | 431 kts | 215° |
| 2026-04-15 21:36 | -13.71118 | -48.18300 | 37920 ft | 430 kts | 215° |
| 2026-04-15 21:37 | -13.76018 | -48.21823 | 37905 ft | 429 kts | 215° |
| 2026-04-15 21:37 | -13.80914 | -48.25345 | 37917 ft | 429 kts | 215° |
| 2026-04-15 21:38 | -13.84975 | -48.28268 | 37907 ft | 428 kts | 215° |
| 2026-04-15 21:38 | -13.89847 | -48.31777 | 37910 ft | 427 kts | 215° |
| 2026-04-15 21:39 | -13.94712 | -48.35281 | 37910 ft | 427 kts | 215° |
| 2026-04-15 21:39 | -13.99567 | -48.38781 | 37912 ft | 426 kts | 215° |
| 2026-04-15 21:40 | -14.04412 | -48.42275 | 37896 ft | 425 kts | 215° |
| 2026-04-15 21:40 | -14.09253 | -48.45768 | 37907 ft | 425 kts | 215° |
| 2026-04-15 21:41 | -14.14213 | -48.49059 | 37903 ft | 424 kts | 207° |
| 2026-04-15 21:41 | -14.19726 | -48.51228 | 37897 ft | 426 kts | 195° |
| 2026-04-15 21:42 | -14.25588 | -48.52215 | 37894 ft | 428 kts | 189° |
| 2026-04-15 21:42 | -14.31493 | -48.52997 | 37917 ft | 428 kts | 189° |
| 2026-04-15 21:43 | -14.37401 | -48.53784 | 37906 ft | 428 kts | 189° |
| 2026-04-15 21:43 | -14.43314 | -48.54567 | 37917 ft | 428 kts | 189° |
| 2026-04-15 21:44 | -14.49226 | -48.55349 | 37917 ft | 428 kts | 189° |
| 2026-04-15 21:44 | -14.55138 | -48.56132 | 37931 ft | 428 kts | 189° |
| 2026-04-15 21:45 | -14.61049 | -48.56916 | 37938 ft | 428 kts | 189° |
| 2026-04-15 21:45 | -14.66948 | -48.57697 | 37922 ft | 426 kts | 189° |
| 2026-04-15 21:46 | -14.72819 | -48.58476 | 37922 ft | 425 kts | 190° |
| 2026-04-15 21:46 | -14.78693 | -48.59256 | 37921 ft | 424 kts | 190° |
| 2026-04-15 21:46 | -14.81612 | -48.59643 | 37629 ft | 423 kts | 190° |
| 2026-04-15 21:47 | -14.84540 | -48.60033 | 36902 ft | 427 kts | 190° |
| 2026-04-15 21:47 | -14.87516 | -48.60429 | 35892 ft | 435 kts | 190° |
| 2026-04-15 21:47 | -14.90552 | -48.60834 | 34789 ft | 446 kts | 190° |
| 2026-04-15 21:47 | -14.93656 | -48.61247 | 33796 ft | 453 kts | 190° |
| 2026-04-15 21:48 | -14.96807 | -48.61666 | 32718 ft | 459 kts | 189° |
| 2026-04-15 21:48 | -15.00007 | -48.61846 | 31884 ft | 463 kts | 180° |
| 2026-04-15 21:48 | -15.03219 | -48.61430 | 30997 ft | 469 kts | 168° |
| 2026-04-15 21:48 | -15.06332 | -48.60396 | 30154 ft | 474 kts | 158° |
| 2026-04-15 21:49 | -15.09256 | -48.58907 | 29397 ft | 473 kts | 154° |
| 2026-04-15 21:49 | -15.12175 | -48.57392 | 28918 ft | 464 kts | 155° |
| 2026-04-15 21:49 | -15.15080 | -48.55892 | 28366 ft | 458 kts | 155° |
| 2026-04-15 21:49 | -15.17910 | -48.54433 | 27780 ft | 453 kts | 154° |
| 2026-04-15 21:50 | -15.20680 | -48.53004 | 27205 ft | 448 kts | 154° |
| 2026-04-15 21:50 | -15.23452 | -48.51561 | 26667 ft | 443 kts | 154° |
| 2026-04-15 21:50 | -15.26195 | -48.50140 | 26115 ft | 439 kts | 154° |
| 2026-04-15 21:50 | -15.28914 | -48.48734 | 25588 ft | 434 kts | 154° |
| 2026-04-15 21:51 | -15.31641 | -48.47330 | 25059 ft | 430 kts | 156° |
| 2026-04-15 21:51 | -15.34426 | -48.46394 | 24550 ft | 425 kts | 169° |
| 2026-04-15 21:51 | -15.37352 | -48.46187 | 24054 ft | 421 kts | 184° |
| 2026-04-15 21:51 | -15.40253 | -48.46757 | 23551 ft | 419 kts | 198° |
| 2026-04-15 21:52 | -15.42843 | -48.48041 | 22982 ft | 420 kts | 213° |
| 2026-04-15 21:52 | -15.45195 | -48.49890 | 22395 ft | 417 kts | 218° |
| 2026-04-15 21:52 | -15.47451 | -48.51763 | 21823 ft | 414 kts | 218° |
| 2026-04-15 21:52 | -15.49690 | -48.53618 | 21270 ft | 410 kts | 218° |
| 2026-04-15 21:53 | -15.51912 | -48.55455 | 20722 ft | 407 kts | 218° |
| 2026-04-15 21:53 | -15.54119 | -48.57272 | 20188 ft | 403 kts | 218° |
| 2026-04-15 21:53 | -15.56305 | -48.59070 | 19661 ft | 400 kts | 218° |
| 2026-04-15 21:53 | -15.58483 | -48.60855 | 19150 ft | 397 kts | 218° |
| 2026-04-15 21:54 | -15.60613 | -48.62594 | 18637 ft | 394 kts | 218° |
| 2026-04-15 21:54 | -15.62761 | -48.64339 | 18121 ft | 391 kts | 218° |
| 2026-04-15 21:54 | -15.64896 | -48.66071 | 17534 ft | 388 kts | 218° |
| 2026-04-15 21:54 | -15.67141 | -48.67591 | 16959 ft | 385 kts | 205° |
| 2026-04-15 21:55 | -15.69680 | -48.68366 | 16388 ft | 377 kts | 187° |
| 2026-04-15 21:55 | -15.72266 | -48.68315 | 15841 ft | 372 kts | 170° |
| 2026-04-15 21:55 | -15.74722 | -48.67484 | 15300 ft | 373 kts | 153° |
| 2026-04-15 21:55 | -15.76832 | -48.65953 | 14771 ft | 371 kts | 136° |
| 2026-04-15 21:56 | -15.78414 | -48.63865 | 14253 ft | 367 kts | 119° |
| 2026-04-15 21:56 | -15.79346 | -48.61415 | 13732 ft | 365 kts | 104° |
| 2026-04-15 21:56 | -15.79896 | -48.59040 | 13184 ft | 361 kts | 104° |
| 2026-04-15 21:56 | -15.80483 | -48.56550 | 12738 ft | 353 kts | 104° |
| 2026-04-15 21:57 | -15.81068 | -48.54085 | 12245 ft | 351 kts | 104° |
| 2026-04-15 21:57 | -15.81649 | -48.51636 | 11762 ft | 348 kts | 104° |
| 2026-04-15 21:57 | -15.82226 | -48.49199 | 11285 ft | 345 kts | 104° |
| 2026-04-15 21:57 | -15.82794 | -48.46790 | 10806 ft | 343 kts | 104° |
| 2026-04-15 21:58 | -15.83360 | -48.44391 | 10373 ft | 339 kts | 104° |
| 2026-04-15 21:58 | -15.83906 | -48.42075 | 10205 ft | 321 kts | 104° |
| 2026-04-15 21:58 | -15.84420 | -48.39895 | 10045 ft | 301 kts | 104° |
| 2026-04-15 21:58 | -15.84907 | -48.37829 | 9865 ft | 289 kts | 103° |
| 2026-04-15 21:59 | -15.85388 | -48.35789 | 9752 ft | 294 kts | 103° |
| 2026-04-15 21:59 | -15.85878 | -48.33705 | 9418 ft | 299 kts | 104° |
| 2026-04-15 21:59 | -15.86372 | -48.31604 | 9047 ft | 299 kts | 104° |
| 2026-04-15 21:59 | -15.86823 | -48.29682 | 8922 ft | 289 kts | 104° |
| 2026-04-15 22:00 | -15.87295 | -48.27673 | 8603 ft | 285 kts | 104° |
| 2026-04-15 22:00 | -15.87762 | -48.25682 | 8232 ft | 283 kts | 103° |
| 2026-04-15 22:00 | -15.88133 | -48.23690 | 7858 ft | 281 kts | 96° |
| 2026-04-15 22:00 | -15.88204 | -48.21672 | 7509 ft | 279 kts | 89° |
| 2026-04-15 22:01 | -15.88089 | -48.19667 | 7154 ft | 277 kts | 86° |
| 2026-04-15 22:01 | -15.87957 | -48.17685 | 6908 ft | 270 kts | 86° |
| 2026-04-15 22:01 | -15.87837 | -48.15815 | 7005 ft | 250 kts | 86° |
| 2026-04-15 22:01 | -15.87726 | -48.14084 | 7084 ft | 231 kts | 86° |
| 2026-04-15 22:02 | -15.87618 | -48.12409 | 7041 ft | 231 kts | 87° |
| 2026-04-15 22:02 | -15.87514 | -48.10777 | 6866 ft | 223 kts | 87° |
| 2026-04-15 22:02 | -15.87412 | -48.09190 | 6633 ft | 217 kts | 86° |
| 2026-04-15 22:02 | -15.87312 | -48.07637 | 6416 ft | 216 kts | 87° |
| 2026-04-15 22:03 | -15.87218 | -48.06162 | 6000 ft | 217 kts | 86° |
| 2026-04-15 22:03 | -15.87120 | -48.04650 | 5685 ft | 204 kts | 87° |
| 2026-04-15 22:03 | -15.87029 | -48.03218 | 5474 ft | 189 kts | 87° |
| 2026-04-15 22:03 | -15.86946 | -48.01941 | 5212 ft | 173 kts | 88° |
| 2026-04-15 22:04 | -15.86867 | -48.00725 | 4988 ft | 158 kts | 88° |
| 2026-04-15 22:04 | -15.86797 | -47.99636 | 4801 ft | 143 kts | 89° |
| 2026-04-15 22:04 | -15.86733 | -47.98604 | 4611 ft | 147 kts | 88° |
| 2026-04-15 22:04 | -15.86666 | -47.97550 | 4420 ft | 147 kts | 87° |
| 2026-04-15 22:05 | -15.86597 | -47.96481 | 4210 ft | 147 kts | 87° |
| 2026-04-15 22:05 | -15.86532 | -47.95405 | 4001 ft | 152 kts | 87° |
| 2026-04-15 22:05 | -15.86452 | -47.94301 | 3804 ft | 154 kts | 86° |
| 2026-04-15 22:05 | -15.86379 | -47.93198 | 3573 ft | 153 kts | 88° |
| 2026-04-15 22:06 | -15.86314 | -47.92103 | 3468 ft | 146 kts | 88° |
| 2026-04-15 22:06 | -15.86257 | -47.91168 | 3469 ft | 108 kts | 86° |
| 2026-04-15 22:06 | -15.86223 | -47.90709 | 3483 ft | 47 kts | 86° |
| 2026-04-15 22:06 | -15.86205 | -47.90395 | 3487 ft | 42 kts | 86° |
| 2026-04-15 22:07 | -15.86188 | -47.90099 | 3491 ft | 40 kts | 87° |
| 2026-04-15 22:07 | -15.86171 | -47.89851 | 3484 ft | 14 kts | 88° |
| 2026-04-15 22:07 | -15.86210 | -47.89765 | 3482 ft | 14 kts | 140° |
| 2026-04-15 22:07 | -15.86309 | -47.89743 | 3483 ft | 16 kts | 176° |
| 2026-04-15 22:08 | -15.86363 | -47.89812 | 3480 ft | 14 kts | 266° |
| 2026-04-15 22:08 | -15.86367 | -47.89914 | 3486 ft | 14 kts | 266° |
| 2026-04-15 22:08 | -15.86372 | -47.90014 | 3489 ft | 14 kts | 267° |
| 2026-04-15 22:08 | -15.86379 | -47.90112 | 3491 ft | 15 kts | 265° |
| 2026-04-15 22:09 | -15.86389 | -47.90239 | 3492 ft | 21 kts | 265° |
| 2026-04-15 22:09 | -15.86399 | -47.90404 | 3491 ft | 24 kts | 266° |
| 2026-04-15 22:09 | -15.86413 | -47.90593 | 3485 ft | 28 kts | 265° |
| 2026-04-15 22:09 | -15.86425 | -47.90800 | 3483 ft | 30 kts | 266° |
| 2026-04-15 22:10 | -15.86440 | -47.91024 | 3472 ft | 33 kts | 265° |
| 2026-04-15 22:10 | -15.86453 | -47.91242 | 3469 ft | 30 kts | 266° |
| 2026-04-15 22:10 | -15.86466 | -47.91460 | 3467 ft | 31 kts | 265° |
| 2026-04-15 22:10 | -15.86480 | -47.91608 | 3465 ft | 15 kts | 249° |
| 2026-04-15 22:11 | -15.86556 | -47.91626 | 3465 ft | 11 kts | 179° |
| 2026-04-15 22:11 | -15.86641 | -47.91622 | 3463 ft | 13 kts | 177° |
| 2026-04-15 22:11 | -15.86738 | -47.91614 | 3464 ft | 16 kts | 177° |
| 2026-04-15 22:11 | -15.86868 | -47.91607 | 3465 ft | 22 kts | 176° |
| 2026-04-15 22:12 | -15.87022 | -47.91596 | 3464 ft | 22 kts | 176° |
| 2026-04-15 22:12 | -15.87165 | -47.91584 | 3464 ft | 19 kts | 176° |
| 2026-04-15 22:12 | -15.87286 | -47.91581 | 3464 ft | 12 kts | 199° |
| 2026-04-15 22:12 | -15.87312 | -47.91644 | 3464 ft | 9 kts | 268° |
| 2026-04-15 22:13 | -15.87315 | -47.91715 | 3464 ft | 10 kts | 266° |
| 2026-04-15 22:13 | -15.87320 | -47.91793 | 3464 ft | 12 kts | 266° |
| 2026-04-15 22:13 | -15.87327 | -47.91881 | 3464 ft | 12 kts | 265° |
| 2026-04-15 22:13 | -15.87329 | -47.91962 | 3464 ft | 8 kts | 291° |
| 2026-04-15 22:14 | -15.87298 | -47.91979 | 3464 ft | 4 kts | 349° |
| 2026-04-15 22:14 | -15.87276 | -47.91980 | 3464 ft | 2 kts | 357° |
| 2026-04-15 22:14 | -15.87272 | -47.91981 | 3464 ft | 0 kts | 356° |